Datum - Zeit
Döttingen
TemperaturTaupunktFeuchteSolar Wind aus
Richtung
Windböenaus
Richtung
Luftdruck
(QFF)
RegenRegen
Stärke
11.12.2019 - 00.00Uhr-1.5 °C-3.0 °C89 %0.0 W/m²0.0 km/hOst-SO0.0 km/hNorden1023.8 hPa0.0 mm0.0 mm/h
11.12.2019 - 00.05Uhr-1.8 °C-3.4 °C89 %0.0 W/m²0.0 km/hOst-SO0.0 km/hNorden1023.8 hPa0.0 mm0.0 mm/h
11.12.2019 - 00.10Uhr-1.8 °C-3.4 °C89 %0.0 W/m²0.0 km/hOst-SO0.0 km/hNorden1023.7 hPa0.0 mm0.0 mm/h
11.12.2019 - 00.15Uhr-1.7 °C-3.2 °C89 %0.0 W/m²1.5 km/hOst-SO4.0 km/hOst-SO1023.7 hPa0.0 mm0.0 mm/h
11.12.2019 - 00.20Uhr-2.1 °C-3.6 °C90 %0.0 W/m²2.8 km/hOst-SO4.0 km/hOst-SO1023.6 hPa0.0 mm0.0 mm/h
11.12.2019 - 00.25Uhr-2.2 °C-3.7 °C90 %0.0 W/m²1.4 km/hOst-SO4.0 km/hOst-SO1023.6 hPa0.0 mm0.0 mm/h
11.12.2019 - 00.30Uhr-2.2 °C-3.6 °C90 %0.0 W/m²1.3 km/hOst-SO4.0 km/hOst-SO1023.5 hPa0.0 mm0.0 mm/h
11.12.2019 - 00.35Uhr-2.1 °C-3.5 °C90 %0.0 W/m²0.0 km/hOst-SO0.0 km/hNorden1023.5 hPa0.0 mm0.0 mm/h
11.12.2019 - 00.40Uhr-2.0 °C-3.4 °C90 %0.0 W/m²0.0 km/hOst-SO0.0 km/hNorden1023.5 hPa0.0 mm0.0 mm/h
11.12.2019 - 00.45Uhr-2.2 °C-3.6 °C90 %0.0 W/m²0.0 km/hOst-SO0.0 km/hNorden1023.5 hPa0.0 mm0.0 mm/h
11.12.2019 - 00.50Uhr-2.2 °C-3.7 °C89 %0.0 W/m²0.0 km/hOst-SO0.0 km/hNorden1023.5 hPa0.0 mm0.0 mm/h
11.12.2019 - 00.55Uhr-2.1 °C-3.5 °C90 %0.0 W/m²0.3 km/hOst-SO1.8 km/hOst-SO1023.3 hPa0.0 mm0.0 mm/h
11.12.2019 - 01.00Uhr-2.1 °C-3.5 °C90 %0.0 W/m²2.3 km/hOst-SO4.0 km/hOst-SO1023.3 hPa0.0 mm0.0 mm/h
11.12.2019 - 01.05Uhr-2.1 °C-3.6 °C90 %0.0 W/m²2.8 km/hOst-SO8.3 km/hOst-SO1023.1 hPa0.0 mm0.0 mm/h
11.12.2019 - 01.10Uhr-2.2 °C-3.6 °C90 %0.0 W/m²4.0 km/hOst-SO8.3 km/hOst-SO1023.0 hPa0.0 mm0.0 mm/h
11.12.2019 - 01.15Uhr-2.1 °C-3.5 °C90 %0.0 W/m²4.1 km/hOst-SO8.3 km/hOst-SO1022.9 hPa0.0 mm0.0 mm/h
11.12.2019 - 01.20Uhr-2.2 °C-3.8 °C89 %0.0 W/m²2.3 km/hOst-SO8.3 km/hOst-SO1022.7 hPa0.0 mm0.0 mm/h
11.12.2019 - 01.25Uhr-2.1 °C-3.6 °C90 %0.0 W/m²2.0 km/hOst-SO8.3 km/hOst-SO1022.7 hPa0.0 mm0.0 mm/h
11.12.2019 - 01.30Uhr-1.9 °C-3.5 °C89 %0.0 W/m²0.0 km/hOst-SO0.0 km/hNorden1022.6 hPa0.0 mm0.0 mm/h
11.12.2019 - 01.35Uhr-2.1 °C-3.5 °C90 %0.0 W/m²0.3 km/hOst-SO1.8 km/hOst-SO1022.6 hPa0.0 mm0.0 mm/h
11.12.2019 - 01.40Uhr-2.1 °C-3.6 °C90 %0.0 W/m²0.0 km/hOst-SO0.0 km/hNorden1022.5 hPa0.0 mm0.0 mm/h
11.12.2019 - 01.45Uhr-2.3 °C-3.9 °C89 %0.0 W/m²0.0 km/hOst-SO0.0 km/hNorden1022.5 hPa0.0 mm0.0 mm/h
11.12.2019 - 01.50Uhr-2.3 °C-3.8 °C90 %0.0 W/m²0.0 km/hOst-SO0.0 km/hNorden1022.3 hPa0.0 mm0.0 mm/h
11.12.2019 - 01.55Uhr-2.4 °C-3.8 °C90 %0.0 W/m²0.0 km/hOst-SO0.0 km/hNorden1022.2 hPa0.0 mm0.0 mm/h
11.12.2019 - 02.00Uhr-2.5 °C-3.9 °C90 %0.0 W/m²0.0 km/hOst-SO0.0 km/hNorden1022.1 hPa0.0 mm0.0 mm/h
11.12.2019 - 02.05Uhr-2.4 °C-3.8 °C90 %0.0 W/m²0.0 km/hOst-SO0.0 km/hNorden1022.2 hPa0.0 mm0.0 mm/h
11.12.2019 - 02.10Uhr-2.5 °C-4.0 °C90 %0.0 W/m²0.0 km/hOst-SO0.0 km/hNorden1022.1 hPa0.0 mm0.0 mm/h
11.12.2019 - 02.15Uhr-2.5 °C-3.9 °C90 %0.0 W/m²0.0 km/hOst-SO0.0 km/hNorden1022.0 hPa0.0 mm0.0 mm/h
11.12.2019 - 02.20Uhr-2.5 °C-3.9 °C90 %0.0 W/m²0.0 km/hOst-SO0.0 km/hNorden1022.0 hPa0.0 mm0.0 mm/h
11.12.2019 - 02.25Uhr-2.6 °C-4.1 °C90 %0.0 W/m²0.0 km/hOst-SO0.0 km/hNorden1022.0 hPa0.0 mm0.0 mm/h
11.12.2019 - 02.30Uhr-2.4 °C-3.9 °C89 %0.0 W/m²0.0 km/hOst-SO0.0 km/hNorden1021.9 hPa0.0 mm0.0 mm/h
11.12.2019 - 02.35Uhr-2.2 °C-3.8 °C89 %0.0 W/m²0.0 km/hOst-SO0.0 km/hNorden1021.8 hPa0.0 mm0.0 mm/h
11.12.2019 - 02.40Uhr-2.2 °C-3.8 °C89 %0.0 W/m²0.0 km/hOst-SO0.0 km/hNorden1021.7 hPa0.0 mm0.0 mm/h
11.12.2019 - 02.45Uhr-2.2 °C-3.8 °C89 %0.0 W/m²0.0 km/hOst-SO0.0 km/hNorden1021.5 hPa0.0 mm0.0 mm/h
11.12.2019 - 02.50Uhr-2.2 °C-3.8 °C89 %0.0 W/m²0.0 km/hOst-SO0.0 km/hNorden1021.4 hPa0.0 mm0.0 mm/h
11.12.2019 - 02.55Uhr-2.2 °C-3.8 °C89 %0.0 W/m²0.0 km/hOst-SO0.0 km/hNorden1021.3 hPa0.0 mm0.0 mm/h
11.12.2019 - 03.00Uhr-2.3 °C-3.9 °C89 %0.0 W/m²0.0 km/hOst-SO0.0 km/hNorden1021.4 hPa0.0 mm0.0 mm/h
11.12.2019 - 03.05Uhr-2.3 °C-3.9 °C89 %0.0 W/m²0.0 km/hOst-SO0.0 km/hNorden1021.2 hPa0.0 mm0.0 mm/h
11.12.2019 - 03.10Uhr-2.4 °C-4.0 °C89 %0.0 W/m²0.0 km/hOst-SO0.0 km/hNorden1021.2 hPa0.0 mm0.0 mm/h
11.12.2019 - 03.15Uhr-2.3 °C-3.9 °C89 %0.0 W/m²0.0 km/hOst-SO0.0 km/hNorden1021.2 hPa0.0 mm0.0 mm/h
11.12.2019 - 03.20Uhr-2.2 °C-3.8 °C89 %0.0 W/m²0.0 km/hOst-SO0.0 km/hNorden1021.2 hPa0.0 mm0.0 mm/h
11.12.2019 - 03.25Uhr0.0 W/m²0.0 mm0.0 mm/h
11.12.2019 - 03.30Uhr-2.1 °C-3.7 °C89 %0.0 W/m²0.0 km/hOst-SO0.0 km/hNorden1021.1 hPa0.0 mm0.0 mm/h
11.12.2019 - 03.35Uhr-2.2 °C-3.8 °C89 %0.0 W/m²3.5 km/hOst-SO8.3 km/hOst-SO1021.0 hPa0.0 mm0.0 mm/h
11.12.2019 - 03.40Uhr-2.4 °C-4.0 °C89 %0.0 W/m²1.8 km/hOst-SO4.0 km/hOst-SO1020.9 hPa0.0 mm0.0 mm/h
11.12.2019 - 03.45Uhr-2.6 °C-4.2 °C89 %0.0 W/m²2.8 km/hOst-SO8.3 km/hOst-SO1020.8 hPa0.0 mm0.0 mm/h
11.12.2019 - 03.50Uhr-2.8 °C-4.3 °C89 %0.0 W/m²2.8 km/hOst-SO8.3 km/hOst-SO1020.8 hPa0.0 mm0.0 mm/h
11.12.2019 - 03.55Uhr-2.9 °C-4.5 °C89 %0.0 W/m²3.0 km/hOst-SO8.3 km/hOst-SO1020.6 hPa0.0 mm0.0 mm/h
11.12.2019 - 04.00Uhr-3.0 °C-4.6 °C89 %0.0 W/m²2.1 km/hOst-SO8.3 km/hOst-SO1020.5 hPa0.0 mm0.0 mm/h
11.12.2019 - 04.05Uhr-2.8 °C-4.4 °C89 %0.0 W/m²1.4 km/hOst-SO4.0 km/hOst-SO1020.5 hPa0.0 mm0.0 mm/h
11.12.2019 - 04.10Uhr-2.7 °C-4.3 °C89 %0.0 W/m²0.4 km/hOst-SO1.8 km/hOst-SO1020.5 hPa0.0 mm0.0 mm/h
11.12.2019 - 04.15Uhr-2.8 °C-4.4 °C89 %0.0 W/m²0.5 km/hOst-SO1.8 km/hOst-SO1020.3 hPa0.0 mm0.0 mm/h
11.12.2019 - 04.20Uhr-2.8 °C-4.4 °C89 %0.0 W/m²2.2 km/hOst-SO8.3 km/hOst-SO1020.1 hPa0.0 mm0.0 mm/h
11.12.2019 - 04.25Uhr-2.8 °C-4.4 °C89 %0.0 W/m²0.0 km/hOst-SO0.0 km/hNorden1020.1 hPa0.0 mm0.0 mm/h
11.12.2019 - 04.30Uhr-2.9 °C-4.5 °C89 %0.0 W/m²1.7 km/hOst-SO4.0 km/hOst-SO1020.0 hPa0.0 mm0.0 mm/h
11.12.2019 - 04.35Uhr-2.9 °C-4.5 °C89 %0.0 W/m²1.1 km/hOst-SO4.0 km/hOst-SO1019.8 hPa0.0 mm0.0 mm/h
11.12.2019 - 04.40Uhr-3.1 °C-4.7 °C89 %0.0 W/m²0.4 km/hOst-SO1.8 km/hOst-SO1019.7 hPa0.0 mm0.0 mm/h
11.12.2019 - 04.45Uhr-3.1 °C-4.7 °C89 %0.0 W/m²0.0 km/hOst-SO0.0 km/hNorden1019.7 hPa0.0 mm0.0 mm/h
11.12.2019 - 04.50Uhr-3.1 °C-4.7 °C89 %0.0 W/m²0.3 km/hOst-SO1.8 km/hOst-SO1019.6 hPa0.0 mm0.0 mm/h
11.12.2019 - 04.55Uhr-3.1 °C-4.7 °C89 %0.0 W/m²0.3 km/hOst-SO1.8 km/hOst-SO1019.5 hPa0.0 mm0.0 mm/h
11.12.2019 - 05.00Uhr-3.0 °C-4.6 °C89 %0.0 W/m²0.0 km/hOst-SO0.0 km/hNorden1019.5 hPa0.0 mm0.0 mm/h
11.12.2019 - 05.05Uhr-2.8 °C-4.4 °C89 %0.0 W/m²0.0 km/hOst-SO0.0 km/hNorden1019.4 hPa0.0 mm0.0 mm/h
11.12.2019 - 05.10Uhr-2.8 °C-4.4 °C89 %0.0 W/m²0.0 km/hOst-SO0.0 km/hNorden1019.3 hPa0.0 mm0.0 mm/h
11.12.2019 - 05.15Uhr-2.8 °C-4.4 °C89 %0.0 W/m²0.0 km/hOst-SO0.0 km/hNorden1019.3 hPa0.0 mm0.0 mm/h
11.12.2019 - 05.20Uhr-2.8 °C-4.4 °C89 %0.0 W/m²0.0 km/hOst-SO0.0 km/hNorden1019.3 hPa0.0 mm0.0 mm/h
11.12.2019 - 05.25Uhr-2.7 °C-4.3 °C89 %0.0 W/m²0.0 km/hOst-SO0.0 km/hNorden1019.2 hPa0.0 mm0.0 mm/h
11.12.2019 - 05.30Uhr-2.7 °C-4.3 °C89 %0.0 W/m²0.0 km/hOst-SO0.0 km/hNorden1019.1 hPa0.0 mm0.0 mm/h
11.12.2019 - 05.35Uhr-2.7 °C-4.3 °C89 %0.0 W/m²0.0 km/hOst-SO0.0 km/hNorden1019.1 hPa0.0 mm0.0 mm/h
11.12.2019 - 05.40Uhr-2.6 °C-4.2 °C89 %0.0 W/m²0.0 km/hOst-SO0.0 km/hNorden1019.1 hPa0.0 mm0.0 mm/h
11.12.2019 - 05.45Uhr-2.7 °C-4.3 °C89 %0.0 W/m²2.1 km/hOst-SO8.3 km/hOst-SO1019.0 hPa0.0 mm0.0 mm/h
11.12.2019 - 05.50Uhr-2.8 °C-4.4 °C89 %0.0 W/m²1.6 km/hOst-SO4.0 km/hOst-SO1019.0 hPa0.0 mm0.0 mm/h
11.12.2019 - 05.55Uhr-2.9 °C-4.5 °C89 %0.0 W/m²0.0 km/hOst-SO0.0 km/hNorden1019.0 hPa0.0 mm0.0 mm/h
11.12.2019 - 06.00Uhr-2.8 °C-4.4 °C89 %0.0 W/m²0.3 km/hOst-SO1.8 km/hOst-SO1019.0 hPa0.0 mm0.0 mm/h
11.12.2019 - 06.05Uhr-2.8 °C-4.4 °C89 %0.0 W/m²0.0 km/hOst-SO0.0 km/hNorden1018.9 hPa0.0 mm0.0 mm/h
11.12.2019 - 06.10Uhr-2.7 °C-4.3 °C89 %0.0 W/m²0.0 km/hOst-SO0.0 km/hNorden1018.9 hPa0.0 mm0.0 mm/h
11.12.2019 - 06.15Uhr-2.7 °C-4.3 °C89 %0.0 W/m²0.0 km/hOst-SO0.0 km/hNorden1018.9 hPa0.0 mm0.0 mm/h
11.12.2019 - 06.20Uhr-2.8 °C-4.4 °C89 %0.0 W/m²0.0 km/hOst-SO0.0 km/hNorden1018.8 hPa0.0 mm0.0 mm/h
11.12.2019 - 06.25Uhr-2.8 °C-4.4 °C89 %0.0 W/m²0.0 km/hOst-SO0.0 km/hNorden1018.7 hPa0.0 mm0.0 mm/h
11.12.2019 - 06.30Uhr-2.7 °C-4.3 °C89 %0.0 W/m²0.0 km/hOst-SO0.0 km/hNorden1018.6 hPa0.0 mm0.0 mm/h
11.12.2019 - 06.35Uhr-2.7 °C-4.3 °C89 %0.0 W/m²0.0 km/hOst-SO0.0 km/hNorden1018.6 hPa0.0 mm0.0 mm/h
11.12.2019 - 06.40Uhr-2.8 °C-4.4 °C89 %0.0 W/m²0.7 km/hOst-SO4.0 km/hOst-SO1018.5 hPa0.0 mm0.0 mm/h
11.12.2019 - 06.45Uhr-2.8 °C-4.4 °C89 %0.0 W/m²0.0 km/hOst-SO0.0 km/hNorden1018.5 hPa0.0 mm0.0 mm/h
11.12.2019 - 06.50Uhr-2.8 °C-4.4 °C89 %0.0 W/m²0.0 km/hOst-SO0.0 km/hNorden1018.4 hPa0.0 mm0.0 mm/h
11.12.2019 - 06.55Uhr-2.7 °C-4.3 °C89 %0.0 W/m²0.0 km/hOst-SO0.0 km/hNorden1018.4 hPa0.0 mm0.0 mm/h
11.12.2019 - 07.00Uhr-2.7 °C-4.3 °C89 %0.0 W/m²0.0 km/hOst-SO0.0 km/hNorden1018.4 hPa0.0 mm0.0 mm/h
11.12.2019 - 07.05Uhr-2.5 °C-4.1 °C89 %0.0 W/m²0.0 km/hOst-SO0.0 km/hNorden1018.3 hPa0.0 mm0.0 mm/h
11.12.2019 - 07.10Uhr-2.4 °C-4.0 °C89 %0.0 W/m²0.0 km/hOst-SO0.0 km/hNorden1018.3 hPa0.0 mm0.0 mm/h
11.12.2019 - 07.15Uhr-2.3 °C-3.9 °C89 %0.0 W/m²0.0 km/hOst-SO0.0 km/hNorden1018.3 hPa0.0 mm0.0 mm/h
11.12.2019 - 07.20Uhr-2.3 °C-3.9 °C89 %0.0 W/m²0.0 km/hOst-SO0.0 km/hNorden1018.1 hPa0.0 mm0.0 mm/h
11.12.2019 - 07.25Uhr-2.3 °C-3.9 °C89 %0.0 W/m²0.0 km/hOst-SO0.0 km/hNorden1018.0 hPa0.0 mm0.0 mm/h
11.12.2019 - 07.30Uhr-2.2 °C-3.8 °C89 %0.0 W/m²0.0 km/hOst-SO0.0 km/hNorden1017.9 hPa0.0 mm0.0 mm/h
11.12.2019 - 07.35Uhr-2.3 °C-3.9 °C89 %0.0 W/m²0.0 km/hOst-SO0.0 km/hNorden1018.0 hPa0.0 mm0.0 mm/h
11.12.2019 - 07.40Uhr-2.4 °C-4.0 °C89 %0.0 W/m²0.0 km/hOst-SO0.0 km/hNorden1017.9 hPa0.0 mm0.0 mm/h
11.12.2019 - 07.45Uhr-2.4 °C-4.0 °C89 %0.0 W/m²0.0 km/hOst-SO0.0 km/hNorden1017.9 hPa0.0 mm0.0 mm/h
11.12.2019 - 07.50Uhr-2.3 °C-3.9 °C89 %0.0 W/m²0.0 km/hOst-SO0.0 km/hNorden1017.9 hPa0.0 mm0.0 mm/h
11.12.2019 - 07.55Uhr-2.2 °C-3.8 °C89 %5.0 W/m²0.0 km/hOst-SO0.0 km/hNorden1017.8 hPa0.0 mm0.0 mm/h
11.12.2019 - 08.00Uhr-2.2 °C-3.8 °C89 %11.0 W/m²0.0 km/hOst-SO0.0 km/hNorden1017.8 hPa0.0 mm0.0 mm/h
11.12.2019 - 08.05Uhr-2.3 °C-3.9 °C89 %12.0 W/m²0.0 km/hOst-SO0.0 km/hNorden1017.8 hPa0.0 mm0.0 mm/h
11.12.2019 - 08.10Uhr-2.2 °C-3.8 °C89 %11.0 W/m²0.0 km/hOst-SO0.0 km/hNorden1017.8 hPa0.0 mm0.0 mm/h
11.12.2019 - 08.15Uhr-2.3 °C-3.9 °C89 %9.0 W/m²0.0 km/hOst-SO0.0 km/hNorden1017.7 hPa0.0 mm0.0 mm/h
11.12.2019 - 08.20Uhr-2.3 °C-3.9 °C89 %7.0 W/m²0.0 km/hOst-SO0.0 km/hNorden1017.7 hPa0.0 mm0.0 mm/h
11.12.2019 - 08.25Uhr-2.2 °C-3.8 °C89 %5.0 W/m²0.0 km/hOst-SO0.0 km/hNorden1017.7 hPa0.0 mm0.0 mm/h
11.12.2019 - 08.30Uhr-2.1 °C-3.7 °C89 %7.0 W/m²0.0 km/hOst-SO0.0 km/hNorden1017.5 hPa0.0 mm0.0 mm/h
11.12.2019 - 08.35Uhr-2.0 °C-3.6 °C89 %11.0 W/m²0.0 km/hOst-SO0.0 km/hNorden1017.6 hPa0.0 mm0.0 mm/h
11.12.2019 - 08.40Uhr-1.9 °C-3.5 °C89 %14.0 W/m²0.4 km/hOst-SO1.8 km/hOst-SO1017.6 hPa0.0 mm0.0 mm/h
11.12.2019 - 08.45Uhr-1.9 °C-3.5 °C89 %19.0 W/m²0.0 km/hOst-SO0.0 km/hNorden1017.6 hPa0.0 mm0.0 mm/h
11.12.2019 - 08.50Uhr-1.8 °C-3.4 °C89 %25.0 W/m²0.0 km/hOst-SO0.0 km/hNorden1017.6 hPa0.0 mm0.0 mm/h
11.12.2019 - 08.55Uhr-1.8 °C-3.4 °C89 %30.0 W/m²0.0 km/hOst-SO0.0 km/hNorden1017.6 hPa0.0 mm0.0 mm/h
11.12.2019 - 09.00Uhr-1.8 °C-3.4 °C89 %35.0 W/m²0.0 km/hOst-SO0.0 km/hNorden1017.6 hPa0.0 mm0.0 mm/h
11.12.2019 - 09.05Uhr-1.7 °C-3.3 °C89 %39.0 W/m²0.0 km/hOst-SO0.0 km/hNorden1017.5 hPa0.0 mm0.0 mm/h
11.12.2019 - 09.10Uhr-1.7 °C-3.3 °C89 %37.0 W/m²1.6 km/hOst-SO4.0 km/hOst-SO1017.4 hPa0.0 mm0.0 mm/h
11.12.2019 - 09.15Uhr-1.7 °C-3.3 °C89 %37.0 W/m²0.0 km/hOst-SO0.0 km/hNorden1017.5 hPa0.0 mm0.0 mm/h
11.12.2019 - 09.20Uhr-1.6 °C-3.2 °C89 %39.0 W/m²0.0 km/hOst-SO0.0 km/hNorden1017.4 hPa0.0 mm0.0 mm/h
11.12.2019 - 09.25Uhr-1.6 °C-3.2 °C89 %40.0 W/m²0.0 km/hOst-SO0.0 km/hNorden1017.2 hPa0.0 mm0.0 mm/h
11.12.2019 - 09.30Uhr-1.4 °C-3.0 °C89 %42.0 W/m²0.0 km/hOst-SO0.0 km/hNorden1017.3 hPa0.0 mm0.0 mm/h
11.12.2019 - 09.35Uhr-1.4 °C-3.0 °C89 %42.0 W/m²0.0 km/hOst-SO0.0 km/hNorden1017.2 hPa0.0 mm0.0 mm/h
11.12.2019 - 09.40Uhr-1.3 °C-2.9 °C89 %42.0 W/m²1.7 km/hOst-SO4.0 km/hOst-SO1017.2 hPa0.0 mm0.0 mm/h
11.12.2019 - 09.45Uhr-1.4 °C-3.0 °C89 %40.0 W/m²2.7 km/hOst-SO8.3 km/hOst-SO1017.2 hPa0.0 mm0.0 mm/h
11.12.2019 - 09.50Uhr-1.4 °C-3.0 °C89 %40.0 W/m²0.0 km/hOst-SO0.0 km/hNorden1017.1 hPa0.0 mm0.0 mm/h
11.12.2019 - 09.55Uhr-1.3 °C-2.9 °C89 %42.0 W/m²0.2 km/hOst-SO1.8 km/hOst-SO1017.0 hPa0.0 mm0.0 mm/h
11.12.2019 - 10.00Uhr-1.2 °C-2.8 °C89 %49.0 W/m²0.0 km/hOst-SO0.0 km/hNorden1016.8 hPa0.0 mm0.0 mm/h
11.12.2019 - 10.05Uhr-1.1 °C-2.7 °C89 %54.0 W/m²0.5 km/hOst-SO1.8 km/hOst-SO1016.8 hPa0.0 mm0.0 mm/h
11.12.2019 - 10.10Uhr-1.1 °C-2.7 °C89 %56.0 W/m²0.0 km/hOst-SO0.0 km/hNorden1016.8 hPa0.0 mm0.0 mm/h
11.12.2019 - 10.15Uhr-0.9 °C-2.5 °C89 %56.0 W/m²0.4 km/hOst-SO1.8 km/hOst-SO1016.8 hPa0.0 mm0.0 mm/h
11.12.2019 - 10.20Uhr-0.9 °C-2.5 °C89 %54.0 W/m²0.0 km/hOst-SO0.0 km/hNorden1016.7 hPa0.0 mm0.0 mm/h
11.12.2019 - 10.25Uhr-0.9 °C-2.5 °C89 %54.0 W/m²0.0 km/hOst-SO0.0 km/hNorden1016.6 hPa0.0 mm0.0 mm/h
11.12.2019 - 10.30Uhr-0.8 °C-2.4 °C89 %56.0 W/m²0.0 km/hOst-SO0.0 km/hNorden1016.6 hPa0.0 mm0.0 mm/h
11.12.2019 - 10.35Uhr-0.8 °C-2.4 °C89 %62.0 W/m²0.0 km/hOst-SO0.0 km/hNorden1016.6 hPa0.0 mm0.0 mm/h
11.12.2019 - 10.40Uhr-0.7 °C-2.3 °C89 %69.0 W/m²0.4 km/hOst-SO1.8 km/hOst-SO1016.4 hPa0.0 mm0.0 mm/h
11.12.2019 - 10.45Uhr-0.8 °C-2.4 °C89 %72.0 W/m²1.0 km/hOst-SO4.0 km/hOst-SO1016.4 hPa0.0 mm0.0 mm/h
11.12.2019 - 10.50Uhr-0.7 °C-2.3 °C89 %74.0 W/m²1.3 km/hOst-SO4.0 km/hOst-SO1016.4 hPa0.0 mm0.0 mm/h
11.12.2019 - 10.55Uhr-0.7 °C-2.3 °C89 %81.0 W/m²1.3 km/hOst-SO4.0 km/hOst-SO1016.3 hPa0.0 mm0.0 mm/h
11.12.2019 - 11.00Uhr-0.6 °C-2.2 °C89 %84.0 W/m²0.3 km/hOst-SO1.8 km/hOst-SO1016.1 hPa0.0 mm0.0 mm/h
11.12.2019 - 11.05Uhr-0.5 °C-2.1 °C89 %84.0 W/m²0.4 km/hOst-SO1.8 km/hOst-SO1015.8 hPa0.0 mm0.0 mm/h
11.12.2019 - 11.10Uhr-0.5 °C-2.1 °C89 %76.0 W/m²0.7 km/hOst-SO1.8 km/hOst-SO1015.6 hPa0.0 mm0.0 mm/h
11.12.2019 - 11.15Uhr-0.3 °C-1.9 °C89 %67.0 W/m²4.2 km/hWesten8.3 km/hSüdosten1016.0 hPa0.0 mm0.0 mm/h
11.12.2019 - 11.20Uhr-0.4 °C-2.0 °C89 %69.0 W/m²0.6 km/hWesten1.8 km/hWesten1015.7 hPa0.0 mm0.0 mm/h
11.12.2019 - 11.25Uhr-0.4 °C-2.0 °C89 %70.0 W/m²0.0 km/hWesten0.0 km/hNorden1015.5 hPa0.0 mm0.0 mm/h
11.12.2019 - 11.30Uhr-0.3 °C-1.9 °C89 %72.0 W/m²0.3 km/hWesten1.8 km/hWesten1015.5 hPa0.0 mm0.0 mm/h
11.12.2019 - 11.35Uhr-0.2 °C-1.9 °C89 %72.0 W/m²0.3 km/hWesten1.8 km/hWesten1015.3 hPa0.0 mm0.0 mm/h
11.12.2019 - 11.40Uhr-0.2 °C-1.8 °C89 %70.0 W/m²0.0 km/hWesten0.0 km/hNorden1015.2 hPa0.0 mm0.0 mm/h
11.12.2019 - 11.45Uhr-0.1 °C-1.7 °C89 %69.0 W/m²0.0 km/hWesten0.0 km/hNorden1015.1 hPa0.0 mm0.0 mm/h
11.12.2019 - 11.50Uhr-0.1 °C-1.7 °C89 %70.0 W/m²0.0 km/hWesten0.0 km/hNorden1015.0 hPa0.0 mm0.0 mm/h
11.12.2019 - 11.55Uhr-0.1 °C-1.7 °C89 %70.0 W/m²0.0 km/hWesten0.0 km/hNorden1015.0 hPa0.0 mm0.0 mm/h
11.12.2019 - 12.00Uhr-0.0 °C-1.5 °C90 %69.0 W/m²0.2 km/hWesten1.8 km/hWesten1015.0 hPa0.0 mm0.0 mm/h
11.12.2019 - 12.05Uhr0.0 °C-1.5 °C90 %69.0 W/m²0.0 km/hWesten0.0 km/hNorden1014.9 hPa0.0 mm0.0 mm/h
11.12.2019 - 12.10Uhr-0.1 °C-1.7 °C89 %67.0 W/m²1.0 km/hWesten4.0 km/hWesten1014.8 hPa0.0 mm0.0 mm/h
11.12.2019 - 12.15Uhr0.0 °C-1.6 °C89 %69.0 W/m²3.0 km/hWesten5.8 km/hWesten1014.6 hPa0.0 mm0.0 mm/h
11.12.2019 - 12.20Uhr0.1 °C-1.2 °C91 %67.0 W/m²1.4 km/hWesten4.0 km/hWesten1014.5 hPa0.0 mm0.0 mm/h
11.12.2019 - 12.25Uhr0.2 °C-1.4 °C89 %62.0 W/m²0.3 km/hWesten1.8 km/hWesten1014.4 hPa0.0 mm0.0 mm/h
11.12.2019 - 12.30Uhr0.3 °C-1.3 °C89 %67.0 W/m²1.7 km/hWesten4.0 km/hWesten1014.3 hPa0.0 mm0.0 mm/h
11.12.2019 - 12.35Uhr0.2 °C-1.4 °C89 %69.0 W/m²1.3 km/hWesten4.0 km/hWesten1014.2 hPa0.0 mm0.0 mm/h
11.12.2019 - 12.40Uhr0.3 °C-1.3 °C89 %72.0 W/m²0.0 km/hWesten0.0 km/hNorden1014.1 hPa0.0 mm0.0 mm/h
11.12.2019 - 12.45Uhr0.3 °C-1.3 °C89 %77.0 W/m²0.0 km/hWesten0.0 km/hNorden1014.0 hPa0.0 mm0.0 mm/h
11.12.2019 - 12.50Uhr0.3 °C-1.3 °C89 %79.0 W/m²2.3 km/hWesten5.8 km/hWesten1013.9 hPa0.0 mm0.0 mm/h
11.12.2019 - 12.55Uhr0.4 °C-1.2 °C89 %81.0 W/m²0.5 km/hWesten1.8 km/hWesten1013.7 hPa0.0 mm0.0 mm/h
11.12.2019 - 13.00Uhr0.5 °C-1.1 °C89 %81.0 W/m²0.6 km/hWesten4.0 km/hWesten1013.6 hPa0.0 mm0.0 mm/h
11.12.2019 - 13.05Uhr0.6 °C-1.0 °C89 %79.0 W/m²0.0 km/hWesten0.0 km/hNorden1013.5 hPa0.0 mm0.0 mm/h
11.12.2019 - 13.10Uhr0.6 °C-1.0 °C89 %77.0 W/m²0.0 km/hWesten0.0 km/hNorden1013.3 hPa0.0 mm0.0 mm/h
11.12.2019 - 13.15Uhr0.6 °C-1.0 °C89 %77.0 W/m²0.3 km/hWesten1.8 km/hWesten1013.1 hPa0.0 mm0.0 mm/h
11.12.2019 - 13.20Uhr0.7 °C-0.9 °C89 %69.0 W/m²2.0 km/hWesten5.8 km/hWesten1013.2 hPa0.0 mm0.0 mm/h
11.12.2019 - 13.25Uhr0.7 °C-0.9 °C89 %58.0 W/m²2.2 km/hWesten4.0 km/hWesten1013.0 hPa0.0 mm0.0 mm/h
11.12.2019 - 13.30Uhr0.7 °C-0.9 °C89 %51.0 W/m²2.0 km/hWesten5.8 km/hWesten1013.1 hPa0.0 mm0.0 mm/h
11.12.2019 - 13.35Uhr0.7 °C-0.9 °C89 %54.0 W/m²0.2 km/hWesten1.8 km/hWesten1013.0 hPa0.0 mm0.0 mm/h
11.12.2019 - 13.40Uhr0.7 °C-0.9 °C89 %58.0 W/m²0.3 km/hWesten1.8 km/hWesten1013.0 hPa0.0 mm0.0 mm/h
11.12.2019 - 13.45Uhr0.7 °C-0.9 °C89 %56.0 W/m²0.0 km/hWesten0.0 km/hNorden1012.9 hPa0.0 mm0.0 mm/h
11.12.2019 - 13.50Uhr0.7 °C-0.9 °C89 %53.0 W/m²0.0 km/hWesten0.0 km/hNorden1012.7 hPa0.0 mm0.0 mm/h
11.12.2019 - 13.55Uhr0.8 °C-0.8 °C89 %54.0 W/m²0.0 km/hWesten0.0 km/hNorden1012.7 hPa0.0 mm0.0 mm/h
11.12.2019 - 14.00Uhr0.8 °C-0.8 °C89 %54.0 W/m²0.0 km/hWesten0.0 km/hNorden1012.5 hPa0.0 mm0.0 mm/h
11.12.2019 - 14.05Uhr0.8 °C-0.8 °C89 %53.0 W/m²0.0 km/hWesten0.0 km/hNorden1012.4 hPa0.0 mm0.0 mm/h
11.12.2019 - 14.10Uhr0.9 °C-0.7 °C89 %54.0 W/m²0.0 km/hWesten0.0 km/hNorden1012.2 hPa0.0 mm0.0 mm/h
11.12.2019 - 14.15Uhr1.0 °C-0.6 °C89 %60.0 W/m²1.3 km/hWesten4.0 km/hWesten1012.0 hPa0.0 mm0.0 mm/h
11.12.2019 - 14.20Uhr1.1 °C-0.5 °C89 %63.0 W/m²2.4 km/hWesten5.8 km/hWesten1012.2 hPa0.0 mm0.0 mm/h
11.12.2019 - 14.25Uhr1.0 °C-0.6 °C89 %60.0 W/m²1.9 km/hWesten5.8 km/hWesten1012.0 hPa0.0 mm0.0 mm/h
11.12.2019 - 14.30Uhr1.0 °C-0.6 °C89 %49.0 W/m²0.6 km/hWesten1.8 km/hWesten1011.9 hPa0.0 mm0.0 mm/h
11.12.2019 - 14.35Uhr1.1 °C-0.5 °C89 %49.0 W/m²0.0 km/hWesten0.0 km/hNorden1011.8 hPa0.0 mm0.0 mm/h
11.12.2019 - 14.40Uhr1.1 °C-0.5 °C89 %47.0 W/m²0.0 km/hWesten0.0 km/hNorden1011.9 hPa0.0 mm0.0 mm/h
11.12.2019 - 14.45Uhr1.1 °C-0.5 °C89 %47.0 W/m²0.0 km/hWesten0.0 km/hNorden1011.9 hPa0.0 mm0.0 mm/h
11.12.2019 - 14.50Uhr1.1 °C-0.5 °C89 %44.0 W/m²2.9 km/hWesten8.3 km/hWesten1012.0 hPa0.0 mm0.0 mm/h
11.12.2019 - 14.55Uhr1.1 °C-0.5 °C89 %44.0 W/m²0.9 km/hWesten4.0 km/hWesten1012.0 hPa0.0 mm0.0 mm/h
11.12.2019 - 15.00Uhr1.1 °C-0.5 °C89 %42.0 W/m²2.1 km/hWesten5.8 km/hWesten1012.0 hPa0.0 mm0.0 mm/h
11.12.2019 - 15.05Uhr1.1 °C-0.5 °C89 %37.0 W/m²3.6 km/hWesten8.3 km/hWesten1012.0 hPa0.0 mm0.0 mm/h
11.12.2019 - 15.10Uhr1.2 °C-0.4 °C89 %30.0 W/m²3.4 km/hWesten8.3 km/hWesten1012.1 hPa0.0 mm0.0 mm/h
11.12.2019 - 15.15Uhr1.2 °C-0.4 °C89 %30.0 W/m²0.7 km/hWesten1.8 km/hWesten1011.8 hPa0.0 mm0.0 mm/h
11.12.2019 - 15.20Uhr1.2 °C-0.4 °C89 %30.0 W/m²0.3 km/hWesten1.8 km/hWesten1011.6 hPa0.0 mm0.0 mm/h
11.12.2019 - 15.25Uhr1.2 °C-0.4 °C89 %25.0 W/m²0.0 km/hWesten0.0 km/hNorden1011.5 hPa0.0 mm0.0 mm/h
11.12.2019 - 15.30Uhr1.2 °C-0.3 °C89 %21.0 W/m²0.0 km/hWesten0.0 km/hNorden1011.4 hPa0.0 mm0.0 mm/h
11.12.2019 - 15.35Uhr1.3 °C-0.3 °C89 %19.0 W/m²0.0 km/hWesten0.0 km/hNorden1011.3 hPa0.0 mm0.0 mm/h
11.12.2019 - 15.40Uhr1.3 °C-0.3 °C89 %16.0 W/m²0.0 km/hWesten0.0 km/hNorden1011.4 hPa0.0 mm0.0 mm/h
11.12.2019 - 15.45Uhr1.2 °C-0.4 °C89 %12.0 W/m²0.0 km/hWesten0.0 km/hNorden1011.4 hPa0.0 mm0.0 mm/h
11.12.2019 - 15.50Uhr1.2 °C-0.4 °C89 %11.0 W/m²0.5 km/hWesten1.8 km/hWesten1011.6 hPa0.0 mm0.0 mm/h
11.12.2019 - 15.55Uhr1.2 °C-0.4 °C89 %11.0 W/m²0.5 km/hWesten1.8 km/hWesten1011.8 hPa0.0 mm0.0 mm/h
11.12.2019 - 16.00Uhr1.1 °C-0.5 °C89 %11.0 W/m²0.0 km/hWesten0.0 km/hNorden1011.7 hPa0.0 mm0.0 mm/h
11.12.2019 - 16.05Uhr1.1 °C-0.5 °C89 %11.0 W/m²0.0 km/hWesten0.0 km/hNorden1011.5 hPa0.0 mm0.0 mm/h
11.12.2019 - 16.10Uhr1.1 °C-0.5 °C89 %9.0 W/m²0.7 km/hWesten1.8 km/hWesten1011.5 hPa0.0 mm0.0 mm/h
11.12.2019 - 16.15Uhr1.1 °C-0.5 °C89 %7.0 W/m²2.0 km/hWesten4.0 km/hWesten1011.5 hPa0.0 mm0.0 mm/h
11.12.2019 - 16.20Uhr1.1 °C-0.5 °C89 %0.0 W/m²1.7 km/hWesten4.0 km/hWesten1011.4 hPa0.0 mm0.0 mm/h
11.12.2019 - 16.25Uhr1.2 °C-0.4 °C89 %0.0 W/m²2.0 km/hWesten4.0 km/hWesten1011.4 hPa0.0 mm0.0 mm/h
11.12.2019 - 16.30Uhr1.3 °C-0.3 °C89 %0.0 W/m²1.6 km/hWesten5.8 km/hWesten1011.6 hPa0.0 mm0.0 mm/h
11.12.2019 - 16.35Uhr1.3 °C-0.3 °C89 %0.0 W/m²3.0 km/hWesten8.3 km/hWesten1011.7 hPa0.0 mm0.0 mm/h
11.12.2019 - 16.40Uhr1.3 °C-0.3 °C89 %0.0 W/m²1.6 km/hWesten5.8 km/hWesten1011.9 hPa0.0 mm0.0 mm/h
11.12.2019 - 16.45Uhr1.3 °C-0.3 °C89 %0.0 W/m²1.4 km/hWesten4.0 km/hWesten1011.9 hPa0.0 mm0.0 mm/h
11.12.2019 - 16.50Uhr1.2 °C-0.4 °C89 %0.0 W/m²0.2 km/hWesten1.8 km/hWesten1012.0 hPa0.0 mm0.0 mm/h
11.12.2019 - 16.55Uhr1.0 °C-0.6 °C89 %0.0 W/m²7.5 km/hSüd-SO12.2 km/hSüd-SO1011.9 hPa0.0 mm0.0 mm/h
11.12.2019 - 17.00Uhr1.0 °C-0.6 °C89 %0.0 W/m²1.7 km/hSüd-SO8.3 km/hSüd-SO1011.8 hPa0.0 mm0.0 mm/h
11.12.2019 - 17.05Uhr0.9 °C-0.7 °C89 %0.0 W/m²0.0 km/hSüd-SO0.0 km/hNorden1011.9 hPa0.0 mm0.0 mm/h
11.12.2019 - 17.10Uhr0.9 °C-0.7 °C89 %0.0 W/m²4.6 km/hSüd-SO8.3 km/hSüd-SO1011.9 hPa0.0 mm0.0 mm/h
11.12.2019 - 17.15Uhr0.9 °C-0.7 °C89 %0.0 W/m²4.5 km/hSüd-SO8.3 km/hSüd-SO1012.0 hPa0.0 mm0.0 mm/h
11.12.2019 - 17.20Uhr1.0 °C-0.6 °C89 %0.0 W/m²1.8 km/hSüd-SO4.0 km/hSüd-SO1012.1 hPa0.0 mm0.0 mm/h
11.12.2019 - 17.25Uhr1.1 °C-0.5 °C89 %0.0 W/m²3.0 km/hSüd-SO8.3 km/hSüd-SO1012.1 hPa0.2 mm0.0 mm/h
11.12.2019 - 17.30Uhr1.1 °C-0.5 °C89 %0.0 W/m²5.7 km/hSüd-SO8.3 km/hSüd-SO1012.2 hPa0.0 mm0.0 mm/h
11.12.2019 - 17.35Uhr1.2 °C-0.4 °C89 %0.0 W/m²4.7 km/hSüd-SO8.3 km/hSüd-SO1012.2 hPa0.2 mm0.8 mm/h
11.12.2019 - 17.40Uhr1.2 °C-0.4 °C89 %0.0 W/m²0.0 km/hSüd-SO0.0 km/hNorden1012.3 hPa0.0 mm0.8 mm/h
11.12.2019 - 17.45Uhr1.1 °C-0.5 °C89 %0.0 W/m²0.0 km/hSüd-SO0.0 km/hNorden1012.5 hPa0.0 mm0.8 mm/h
11.12.2019 - 17.50Uhr1.1 °C-0.5 °C89 %0.0 W/m²0.0 km/hSüd-SO0.0 km/hNorden1012.5 hPa0.2 mm0.8 mm/h
11.12.2019 - 17.55Uhr1.1 °C-0.5 °C89 %0.0 W/m²3.4 km/hSüd-SO8.3 km/hSüd-SO1012.5 hPa0.0 mm0.8 mm/h
11.12.2019 - 18.00Uhr1.2 °C-0.4 °C89 %0.0 W/m²2.6 km/hSüd-SO8.3 km/hSüd-SO1012.5 hPa0.0 mm0.8 mm/h
11.12.2019 - 18.05Uhr1.2 °C-0.4 °C89 %0.0 W/m²2.5 km/hSüd-SO8.3 km/hSüd-SO1012.6 hPa0.2 mm0.8 mm/h
11.12.2019 - 18.10Uhr1.4 °C-0.2 °C89 %0.0 W/m²2.5 km/hSüd-SO8.3 km/hSüd-SO1012.5 hPa0.0 mm0.8 mm/h